sensor_id;sensor_type;location;lat;lon;timestamp;temperature;humidity
10312;DHT22;5201;48.776;9.128;2022-10-16T00:00:33;16.90;99.90
10312;DHT22;5201;48.776;9.128;2022-10-16T00:02:59;16.90;99.90
10312;DHT22;5201;48.776;9.128;2022-10-16T00:05:25;16.90;99.90
10312;DHT22;5201;48.776;9.128;2022-10-16T00:07:50;16.90;99.90
10312;DHT22;5201;48.776;9.128;2022-10-16T00:10:16;16.90;99.90
10312;DHT22;5201;48.776;9.128;2022-10-16T00:12:42;16.90;99.90
10312;DHT22;5201;48.776;9.128;2022-10-16T00:15:07;16.70;99.90
10312;DHT22;5201;48.776;9.128;2022-10-16T00:17:33;16.70;99.90
10312;DHT22;5201;48.776;9.128;2022-10-16T00:19:59;16.60;99.90
10312;DHT22;5201;48.776;9.128;2022-10-16T00:22:24;16.60;99.90
10312;DHT22;5201;48.776;9.128;2022-10-16T00:24:50;16.80;99.90
10312;DHT22;5201;48.776;9.128;2022-10-16T00:27:16;16.60;99.90
10312;DHT22;5201;48.776;9.128;2022-10-16T00:29:42;16.50;99.90
10312;DHT22;5201;48.776;9.128;2022-10-16T00:32:08;16.70;99.90
10312;DHT22;5201;48.776;9.128;2022-10-16T00:34:33;17.10;99.90
10312;DHT22;5201;48.776;9.128;2022-10-16T00:36:59;16.80;99.90
10312;DHT22;5201;48.776;9.128;2022-10-16T00:39:25;16.90;99.90
10312;DHT22;5201;48.776;9.128;2022-10-16T00:41:51;16.60;99.90
10312;DHT22;5201;48.776;9.128;2022-10-16T00:47:10;16.70;99.90
10312;DHT22;5201;48.776;9.128;2022-10-16T00:49:36;17.20;99.90
10312;DHT22;5201;48.776;9.128;2022-10-16T00:52:02;16.80;99.90
10312;DHT22;5201;48.776;9.128;2022-10-16T00:54:30;16.70;99.90
10312;DHT22;5201;48.776;9.128;2022-10-16T00:56:59;16.70;99.90
10312;DHT22;5201;48.776;9.128;2022-10-16T00:59:32;17.20;99.90
10312;DHT22;5201;48.776;9.128;2022-10-16T01:01:59;16.70;99.90
10312;DHT22;5201;48.776;9.128;2022-10-16T01:04:26;16.80;99.90
10312;DHT22;5201;48.776;9.128;2022-10-16T01:09:34;16.70;99.90
10312;DHT22;5201;48.776;9.128;2022-10-16T01:12:26;16.70;99.90
10312;DHT22;5201;48.776;9.128;2022-10-16T01:14:59;16.70;99.90
10312;DHT22;5201;48.776;9.128;2022-10-16T01:20:34;16.70;99.90
10312;DHT22;5201;48.776;9.128;2022-10-16T01:23:25;16.70;99.90
10312;DHT22;5201;48.776;9.128;2022-10-16T01:26:18;16.70;99.90
10312;DHT22;5201;48.776;9.128;2022-10-16T01:28:55;16.60;99.90
10312;DHT22;5201;48.776;9.128;2022-10-16T01:31:25;16.40;99.90
10312;DHT22;5201;48.776;9.128;2022-10-16T01:33:56;16.40;99.90
10312;DHT22;5201;48.776;9.128;2022-10-16T01:36:27;16.40;99.90
10312;DHT22;5201;48.776;9.128;2022-10-16T01:38:56;16.30;99.90
10312;DHT22;5201;48.776;9.128;2022-10-16T01:41:35;16.40;99.90
10312;DHT22;5201;48.776;9.128;2022-10-16T01:44:11;16.40;99.90
10312;DHT22;5201;48.776;9.128;2022-10-16T01:46:41;16.50;99.90
10312;DHT22;5201;48.776;9.128;2022-10-16T01:49:09;16.50;99.90
10312;DHT22;5201;48.776;9.128;2022-10-16T01:51:36;16.50;99.90
10312;DHT22;5201;48.776;9.128;2022-10-16T01:54:04;16.40;99.90
10312;DHT22;5201;48.776;9.128;2022-10-16T01:56:30;17.10;99.90
10312;DHT22;5201;48.776;9.128;2022-10-16T01:59:09;16.30;99.90
10312;DHT22;5201;48.776;9.128;2022-10-16T02:01:39;16.30;99.90
10312;DHT22;5201;48.776;9.128;2022-10-16T02:04:34;16.50;99.90
10312;DHT22;5201;48.776;9.128;2022-10-16T02:07:00;16.10;99.90
10312;DHT22;5201;48.776;9.128;2022-10-16T02:09:26;16.10;99.90
10312;DHT22;5201;48.776;9.128;2022-10-16T02:11:56;16.30;99.90
10312;DHT22;5201;48.776;9.128;2022-10-16T02:14:23;16.10;99.90
10312;DHT22;5201;48.776;9.128;2022-10-16T02:16:50;16.20;99.90
10312;DHT22;5201;48.776;9.128;2022-10-16T02:19:17;16.20;99.90
10312;DHT22;5201;48.776;9.128;2022-10-16T02:21:58;17.00;99.90
10312;DHT22;5201;48.776;9.128;2022-10-16T02:27:15;16.10;99.90
10312;DHT22;5201;48.776;9.128;2022-10-16T02:29:46;16.10;99.90
10312;DHT22;5201;48.776;9.128;2022-10-16T02:32:19;16.00;99.90
10312;DHT22;5201;48.776;9.128;2022-10-16T02:34:47;16.30;99.90
10312;DHT22;5201;48.776;9.128;2022-10-16T02:37:14;16.00;99.90
10312;DHT22;5201;48.776;9.128;2022-10-16T02:39:41;16.10;99.90
10312;DHT22;5201;48.776;9.128;2022-10-16T02:42:13;16.20;99.90
10312;DHT22;5201;48.776;9.128;2022-10-16T02:44:39;16.30;99.90
10312;DHT22;5201;48.776;9.128;2022-10-16T02:47:05;16.30;99.90
10312;DHT22;5201;48.776;9.128;2022-10-16T02:49:30;16.20;99.90
10312;DHT22;5201;48.776;9.128;2022-10-16T02:51:56;16.40;99.90
10312;DHT22;5201;48.776;9.128;2022-10-16T02:54:21;16.00;99.90
10312;DHT22;5201;48.776;9.128;2022-10-16T02:56:47;15.90;99.90
10312;DHT22;5201;48.776;9.128;2022-10-16T02:59:12;15.80;99.90
10312;DHT22;5201;48.776;9.128;2022-10-16T03:01:38;16.30;99.90
10312;DHT22;5201;48.776;9.128;2022-10-16T03:04:03;15.80;99.90
10312;DHT22;5201;48.776;9.128;2022-10-16T03:06:29;15.80;99.90
10312;DHT22;5201;48.776;9.128;2022-10-16T03:08:55;15.80;99.90
10312;DHT22;5201;48.776;9.128;2022-10-16T03:11:20;16.00;99.90
10312;DHT22;5201;48.776;9.128;2022-10-16T03:13:46;15.80;99.90
10312;DHT22;5201;48.776;9.128;2022-10-16T03:16:11;16.00;99.90
10312;DHT22;5201;48.776;9.128;2022-10-16T03:18:37;15.80;99.90
10312;DHT22;5201;48.776;9.128;2022-10-16T03:21:03;15.90;99.90
10312;DHT22;5201;48.776;9.128;2022-10-16T03:23:28;16.00;99.90
10312;DHT22;5201;48.776;9.128;2022-10-16T03:25:54;16.20;99.90
10312;DHT22;5201;48.776;9.128;2022-10-16T03:28:19;15.60;99.90
10312;DHT22;5201;48.776;9.128;2022-10-16T03:30:45;16.60;99.90
10312;DHT22;5201;48.776;9.128;2022-10-16T03:33:11;16.40;99.90
10312;DHT22;5201;48.776;9.128;2022-10-16T03:35:36;16.40;99.90
10312;DHT22;5201;48.776;9.128;2022-10-16T03:38:02;16.40;99.90
10312;DHT22;5201;48.776;9.128;2022-10-16T03:40:27;16.40;99.90
10312;DHT22;5201;48.776;9.128;2022-10-16T03:42:53;16.40;99.90
10312;DHT22;5201;48.776;9.128;2022-10-16T03:45:23;16.50;99.90
10312;DHT22;5201;48.776;9.128;2022-10-16T03:47:48;16.30;99.90
10312;DHT22;5201;48.776;9.128;2022-10-16T03:50:14;16.30;99.90
10312;DHT22;5201;48.776;9.128;2022-10-16T03:52:40;16.30;99.90
10312;DHT22;5201;48.776;9.128;2022-10-16T03:55:06;16.20;99.90
10312;DHT22;5201;48.776;9.128;2022-10-16T03:57:32;16.20;99.90
10312;DHT22;5201;48.776;9.128;2022-10-16T03:59:57;16.30;99.90
10312;DHT22;5201;48.776;9.128;2022-10-16T04:02:23;16.30;99.90
10312;DHT22;5201;48.776;9.128;2022-10-16T04:04:49;16.50;99.90
10312;DHT22;5201;48.776;9.128;2022-10-16T04:07:14;16.40;99.90
10312;DHT22;5201;48.776;9.128;2022-10-16T04:09:40;16.40;99.90
10312;DHT22;5201;48.776;9.128;2022-10-16T04:12:05;16.50;99.90
10312;DHT22;5201;48.776;9.128;2022-10-16T04:14:31;16.90;99.90
10312;DHT22;5201;48.776;9.128;2022-10-16T04:16:57;16.50;99.90
10312;DHT22;5201;48.776;9.128;2022-10-16T04:19:22;16.50;99.90
10312;DHT22;5201;48.776;9.128;2022-10-16T04:21:48;16.50;99.90
10312;DHT22;5201;48.776;9.128;2022-10-16T04:24:13;16.90;99.90
10312;DHT22;5201;48.776;9.128;2022-10-16T04:26:39;16.40;99.90
10312;DHT22;5201;48.776;9.128;2022-10-16T04:29:04;16.50;99.90
10312;DHT22;5201;48.776;9.128;2022-10-16T04:31:31;16.50;99.90
10312;DHT22;5201;48.776;9.128;2022-10-16T04:33:56;16.60;99.90
10312;DHT22;5201;48.776;9.128;2022-10-16T04:36:22;16.60;99.90
10312;DHT22;5201;48.776;9.128;2022-10-16T04:38:48;16.60;99.90
10312;DHT22;5201;48.776;9.128;2022-10-16T04:41:13;16.60;99.90
10312;DHT22;5201;48.776;9.128;2022-10-16T04:43:39;16.70;99.90
10312;DHT22;5201;48.776;9.128;2022-10-16T04:46:04;16.70;99.90
10312;DHT22;5201;48.776;9.128;2022-10-16T04:48:31;16.80;99.90
10312;DHT22;5201;48.776;9.128;2022-10-16T04:50:56;16.70;99.90
10312;DHT22;5201;48.776;9.128;2022-10-16T04:53:22;16.70;99.90
10312;DHT22;5201;48.776;9.128;2022-10-16T04:55:47;16.70;99.90
10312;DHT22;5201;48.776;9.128;2022-10-16T04:58:13;16.70;99.90
10312;DHT22;5201;48.776;9.128;2022-10-16T05:00:39;16.60;99.90
10312;DHT22;5201;48.776;9.128;2022-10-16T05:03:05;16.70;99.90
10312;DHT22;5201;48.776;9.128;2022-10-16T05:05:34;16.80;99.90
10312;DHT22;5201;48.776;9.128;2022-10-16T05:07:59;16.80;99.90
10312;DHT22;5201;48.776;9.128;2022-10-16T05:10:25;16.80;99.90
10312;DHT22;5201;48.776;9.128;2022-10-16T05:12:50;16.80;99.90
10312;DHT22;5201;48.776;9.128;2022-10-16T05:15:17;16.80;99.90
10312;DHT22;5201;48.776;9.128;2022-10-16T05:17:42;16.80;99.90
10312;DHT22;5201;48.776;9.128;2022-10-16T05:20:08;16.70;99.90
10312;DHT22;5201;48.776;9.128;2022-10-16T05:22:34;16.70;99.90
10312;DHT22;5201;48.776;9.128;2022-10-16T05:24:59;17.20;99.90
10312;DHT22;5201;48.776;9.128;2022-10-16T05:27:25;16.70;99.90
10312;DHT22;5201;48.776;9.128;2022-10-16T05:29:50;16.70;99.90
10312;DHT22;5201;48.776;9.128;2022-10-16T05:32:16;16.70;99.90
10312;DHT22;5201;48.776;9.128;2022-10-16T05:34:43;16.70;99.90
10312;DHT22;5201;48.776;9.128;2022-10-16T05:37:09;16.60;99.90
10312;DHT22;5201;48.776;9.128;2022-10-16T05:39:34;16.60;99.90
10312;DHT22;5201;48.776;9.128;2022-10-16T05:42:02;16.60;99.90
10312;DHT22;5201;48.776;9.128;2022-10-16T05:44:27;16.60;99.90
10312;DHT22;5201;48.776;9.128;2022-10-16T05:46:53;16.50;99.90
10312;DHT22;5201;48.776;9.128;2022-10-16T05:49:18;16.50;99.90
10312;DHT22;5201;48.776;9.128;2022-10-16T05:51:44;16.50;99.90
10312;DHT22;5201;48.776;9.128;2022-10-16T05:54:10;16.40;99.90
10312;DHT22;5201;48.776;9.128;2022-10-16T05:56:35;16.50;99.90
10312;DHT22;5201;48.776;9.128;2022-10-16T05:59:02;16.50;99.90
10312;DHT22;5201;48.776;9.128;2022-10-16T06:01:28;16.60;99.90
10312;DHT22;5201;48.776;9.128;2022-10-16T06:03:53;16.60;99.90
10312;DHT22;5201;48.776;9.128;2022-10-16T06:06:21;16.60;99.90
10312;DHT22;5201;48.776;9.128;2022-10-16T06:08:47;16.70;99.90
10312;DHT22;5201;48.776;9.128;2022-10-16T06:11:22;16.70;99.90
10312;DHT22;5201;48.776;9.128;2022-10-16T06:13:56;16.70;99.90
10312;DHT22;5201;48.776;9.128;2022-10-16T06:16:23;16.70;99.90
10312;DHT22;5201;48.776;9.128;2022-10-16T06:18:51;16.70;99.90
10312;DHT22;5201;48.776;9.128;2022-10-16T06:21:19;16.80;99.90
10312;DHT22;5201;48.776;9.128;2022-10-16T06:23:46;17.20;99.90
10312;DHT22;5201;48.776;9.128;2022-10-16T06:26:15;16.80;99.90
10312;DHT22;5201;48.776;9.128;2022-10-16T06:28:41;16.80;99.90
10312;DHT22;5201;48.776;9.128;2022-10-16T06:31:08;16.80;99.90
10312;DHT22;5201;48.776;9.128;2022-10-16T06:33:35;16.70;99.90
10312;DHT22;5201;48.776;9.128;2022-10-16T06:36:03;16.80;99.90
10312;DHT22;5201;48.776;9.128;2022-10-16T06:38:30;16.80;99.90
10312;DHT22;5201;48.776;9.128;2022-10-16T06:40:56;16.80;99.90
10312;DHT22;5201;48.776;9.128;2022-10-16T06:43:21;16.80;99.90
10312;DHT22;5201;48.776;9.128;2022-10-16T06:45:55;16.80;99.90
10312;DHT22;5201;48.776;9.128;2022-10-16T06:48:21;16.80;99.90
10312;DHT22;5201;48.776;9.128;2022-10-16T06:53:23;16.90;99.90
10312;DHT22;5201;48.776;9.128;2022-10-16T06:55:49;17.00;99.90
10312;DHT22;5201;48.776;9.128;2022-10-16T06:58:15;17.30;99.90
10312;DHT22;5201;48.776;9.128;2022-10-16T07:00:40;17.10;99.90
10312;DHT22;5201;48.776;9.128;2022-10-16T07:03:06;17.00;99.90
10312;DHT22;5201;48.776;9.128;2022-10-16T07:05:31;17.00;99.90
10312;DHT22;5201;48.776;9.128;2022-10-16T07:07:57;17.10;99.90
10312;DHT22;5201;48.776;9.128;2022-10-16T07:10:23;17.20;99.90
10312;DHT22;5201;48.776;9.128;2022-10-16T07:12:51;17.10;99.90
10312;DHT22;5201;48.776;9.128;2022-10-16T07:15:16;17.20;99.90
10312;DHT22;5201;48.776;9.128;2022-10-16T07:17:42;17.60;99.90
10312;DHT22;5201;48.776;9.128;2022-10-16T07:20:08;17.20;99.90
10312;DHT22;5201;48.776;9.128;2022-10-16T07:22:33;17.20;99.90
10312;DHT22;5201;48.776;9.128;2022-10-16T07:24:59;17.20;99.90
10312;DHT22;5201;48.776;9.128;2022-10-16T07:27:25;17.20;99.90
10312;DHT22;5201;48.776;9.128;2022-10-16T07:29:51;17.20;99.90
10312;DHT22;5201;48.776;9.128;2022-10-16T07:32:17;17.20;99.90
10312;DHT22;5201;48.776;9.128;2022-10-16T07:34:42;17.10;99.90
10312;DHT22;5201;48.776;9.128;2022-10-16T07:37:08;17.20;99.90
10312;DHT22;5201;48.776;9.128;2022-10-16T07:39:33;17.10;99.90
10312;DHT22;5201;48.776;9.128;2022-10-16T07:41:59;17.00;99.90
10312;DHT22;5201;48.776;9.128;2022-10-16T07:44:24;17.10;99.90
10312;DHT22;5201;48.776;9.128;2022-10-16T07:46:50;17.20;99.90
10312;DHT22;5201;48.776;9.128;2022-10-16T07:49:16;17.20;99.90
10312;DHT22;5201;48.776;9.128;2022-10-16T07:51:41;17.10;99.90
10312;DHT22;5201;48.776;9.128;2022-10-16T07:54:09;17.20;99.90
10312;DHT22;5201;48.776;9.128;2022-10-16T07:56:34;17.20;99.90
10312;DHT22;5201;48.776;9.128;2022-10-16T07:59:00;17.20;99.90
10312;DHT22;5201;48.776;9.128;2022-10-16T08:01:26;17.20;99.90
10312;DHT22;5201;48.776;9.128;2022-10-16T08:03:52;17.40;99.90
10312;DHT22;5201;48.776;9.128;2022-10-16T08:06:19;17.30;99.90
10312;DHT22;5201;48.776;9.128;2022-10-16T08:08:45;17.40;99.90
10312;DHT22;5201;48.776;9.128;2022-10-16T08:11:10;17.40;99.90
10312;DHT22;5201;48.776;9.128;2022-10-16T08:13:36;17.50;99.90
10312;DHT22;5201;48.776;9.128;2022-10-16T08:16:02;17.40;99.90
10312;DHT22;5201;48.776;9.128;2022-10-16T08:18:39;17.50;99.90
10312;DHT22;5201;48.776;9.128;2022-10-16T08:21:06;17.50;99.90
10312;DHT22;5201;48.776;9.128;2022-10-16T08:23:33;17.90;99.90
10312;DHT22;5201;48.776;9.128;2022-10-16T08:26:04;17.80;99.90
10312;DHT22;5201;48.776;9.128;2022-10-16T08:28:29;17.90;99.90
10312;DHT22;5201;48.776;9.128;2022-10-16T08:30:55;18.00;99.90
10312;DHT22;5201;48.776;9.128;2022-10-16T08:33:22;18.00;99.90
10312;DHT22;5201;48.776;9.128;2022-10-16T08:35:53;18.00;99.90
10312;DHT22;5201;48.776;9.128;2022-10-16T08:38:20;18.10;99.90
10312;DHT22;5201;48.776;9.128;2022-10-16T08:40:45;18.20;99.90
10312;DHT22;5201;48.776;9.128;2022-10-16T08:43:27;18.20;99.90
10312;DHT22;5201;48.776;9.128;2022-10-16T08:48:54;18.20;99.90
10312;DHT22;5201;48.776;9.128;2022-10-16T08:51:26;18.30;99.90
10312;DHT22;5201;48.776;9.128;2022-10-16T08:53:57;18.40;99.90
10312;DHT22;5201;48.776;9.128;2022-10-16T08:56:24;18.30;99.90
10312;DHT22;5201;48.776;9.128;2022-10-16T08:58:51;18.20;99.90
10312;DHT22;5201;48.776;9.128;2022-10-16T09:01:19;18.30;99.90
10312;DHT22;5201;48.776;9.128;2022-10-16T09:04:04;18.30;99.90
10312;DHT22;5201;48.776;9.128;2022-10-16T09:14:58;18.30;99.90
10312;DHT22;5201;48.776;9.128;2022-10-16T09:20:38;18.60;99.90
10312;DHT22;5201;48.776;9.128;2022-10-16T09:23:14;18.80;99.90
10312;DHT22;5201;48.776;9.128;2022-10-16T09:25:44;18.90;99.90
10312;DHT22;5201;48.776;9.128;2022-10-16T09:28:10;18.90;99.90
10312;DHT22;5201;48.776;9.128;2022-10-16T09:30:37;18.90;99.90
10312;DHT22;5201;48.776;9.128;2022-10-16T09:33:04;18.80;99.90
10312;DHT22;5201;48.776;9.128;2022-10-16T09:35:42;18.90;99.90
10312;DHT22;5201;48.776;9.128;2022-10-16T09:38:08;19.10;99.90
10312;DHT22;5201;48.776;9.128;2022-10-16T09:40:39;19.10;99.90
10312;DHT22;5201;48.776;9.128;2022-10-16T09:45:59;19.00;99.90
10312;DHT22;5201;48.776;9.128;2022-10-16T09:48:53;19.20;99.90
10312;DHT22;5201;48.776;9.128;2022-10-16T09:51:27;18.90;99.90
10312;DHT22;5201;48.776;9.128;2022-10-16T09:56:31;19.20;99.90
10312;DHT22;5201;48.776;9.128;2022-10-16T10:01:48;19.70;99.90
10312;DHT22;5201;48.776;9.128;2022-10-16T10:04:14;19.80;99.90
10312;DHT22;5201;48.776;9.128;2022-10-16T10:06:46;19.80;99.90
10312;DHT22;5201;48.776;9.128;2022-10-16T10:11:59;19.90;99.90
10312;DHT22;5201;48.776;9.128;2022-10-16T10:14:37;20.00;99.90
10312;DHT22;5201;48.776;9.128;2022-10-16T10:22:41;20.20;99.90
10312;DHT22;5201;48.776;9.128;2022-10-16T10:25:14;20.20;99.90
10312;DHT22;5201;48.776;9.128;2022-10-16T10:27:53;20.20;99.90
10312;DHT22;5201;48.776;9.128;2022-10-16T10:30:38;20.30;99.90
10312;DHT22;5201;48.776;9.128;2022-10-16T10:33:20;20.20;99.90
10312;DHT22;5201;48.776;9.128;2022-10-16T10:36:07;20.30;99.90
10312;DHT22;5201;48.776;9.128;2022-10-16T10:42:26;20.60;99.90
10312;DHT22;5201;48.776;9.128;2022-10-16T10:45:22;20.70;99.90
10312;DHT22;5201;48.776;9.128;2022-10-16T10:48:03;20.70;99.90
10312;DHT22;5201;48.776;9.128;2022-10-16T10:50:43;20.80;99.90
10312;DHT22;5201;48.776;9.128;2022-10-16T10:53:47;21.00;99.90
10312;DHT22;5201;48.776;9.128;2022-10-16T10:58:56;21.10;99.90
10312;DHT22;5201;48.776;9.128;2022-10-16T11:09:11;21.20;99.90
10312;DHT22;5201;48.776;9.128;2022-10-16T11:11:43;21.20;99.90
10312;DHT22;5201;48.776;9.128;2022-10-16T11:14:22;21.20;99.90
10312;DHT22;5201;48.776;9.128;2022-10-16T11:16:54;21.10;99.90
10312;DHT22;5201;48.776;9.128;2022-10-16T11:19:44;21.10;99.90
10312;DHT22;5201;48.776;9.128;2022-10-16T11:22:34;21.20;99.90
10312;DHT22;5201;48.776;9.128;2022-10-16T11:25:29;21.30;99.90
10312;DHT22;5201;48.776;9.128;2022-10-16T11:30:39;21.20;99.90
10312;DHT22;5201;48.776;9.128;2022-10-16T11:41:08;21.40;99.90
10312;DHT22;5201;48.776;9.128;2022-10-16T11:43:39;21.40;99.90
10312;DHT22;5201;48.776;9.128;2022-10-16T11:46:13;21.40;99.90
10312;DHT22;5201;48.776;9.128;2022-10-16T11:48:50;21.50;99.90
10312;DHT22;5201;48.776;9.128;2022-10-16T11:57:33;21.60;99.90
10312;DHT22;5201;48.776;9.128;2022-10-16T12:00:03;21.60;99.90
10312;DHT22;5201;48.776;9.128;2022-10-16T12:02:49;21.80;99.90
10312;DHT22;5201;48.776;9.128;2022-10-16T12:08:15;22.10;99.90
10312;DHT22;5201;48.776;9.128;2022-10-16T12:10:45;22.20;99.90
10312;DHT22;5201;48.776;9.128;2022-10-16T12:13:37;22.10;99.90
10312;DHT22;5201;48.776;9.128;2022-10-16T12:18:43;22.10;99.90
10312;DHT22;5201;48.776;9.128;2022-10-16T12:21:10;22.20;99.90
10312;DHT22;5201;48.776;9.128;2022-10-16T12:23:47;22.20;99.90
10312;DHT22;5201;48.776;9.128;2022-10-16T12:26:13;22.10;99.90
10312;DHT22;5201;48.776;9.128;2022-10-16T12:28:39;22.20;99.90
10312;DHT22;5201;48.776;9.128;2022-10-16T12:31:07;22.30;99.90
10312;DHT22;5201;48.776;9.128;2022-10-16T12:33:37;22.30;99.90
10312;DHT22;5201;48.776;9.128;2022-10-16T12:38:53;22.30;99.90
10312;DHT22;5201;48.776;9.128;2022-10-16T12:41:39;22.40;99.90
10312;DHT22;5201;48.776;9.128;2022-10-16T12:44:05;22.30;99.90
10312;DHT22;5201;48.776;9.128;2022-10-16T12:46:46;22.30;99.90
10312;DHT22;5201;48.776;9.128;2022-10-16T12:51:38;22.00;99.90
10312;DHT22;5201;48.776;9.128;2022-10-16T12:54:18;22.00;99.90
10312;DHT22;5201;48.776;9.128;2022-10-16T13:00:02;22.00;99.90
10312;DHT22;5201;48.776;9.128;2022-10-16T13:08:50;22.10;99.90
10312;DHT22;5201;48.776;9.128;2022-10-16T13:21:24;22.20;99.90
10312;DHT22;5201;48.776;9.128;2022-10-16T13:27:02;22.10;99.90
10312;DHT22;5201;48.776;9.128;2022-10-16T13:29:32;22.20;99.90
10312;DHT22;5201;48.776;9.128;2022-10-16T13:32:06;22.10;99.90
10312;DHT22;5201;48.776;9.128;2022-10-16T13:34:33;22.10;99.90
10312;DHT22;5201;48.776;9.128;2022-10-16T13:37:21;22.10;99.90
10312;DHT22;5201;48.776;9.128;2022-10-16T13:39:47;22.10;99.90
10312;DHT22;5201;48.776;9.128;2022-10-16T13:42:19;22.00;99.90
10312;DHT22;5201;48.776;9.128;2022-10-16T13:44:50;22.10;99.90
10312;DHT22;5201;48.776;9.128;2022-10-16T13:47:19;22.10;99.90
10312;DHT22;5201;48.776;9.128;2022-10-16T13:49:45;22.10;99.90
10312;DHT22;5201;48.776;9.128;2022-10-16T13:52:19;22.20;99.90
10312;DHT22;5201;48.776;9.128;2022-10-16T13:54:45;22.20;99.90
10312;DHT22;5201;48.776;9.128;2022-10-16T13:57:14;22.20;99.90
10312;DHT22;5201;48.776;9.128;2022-10-16T13:59:40;22.20;99.90
10312;DHT22;5201;48.776;9.128;2022-10-16T14:02:26;22.20;99.90
10312;DHT22;5201;48.776;9.128;2022-10-16T14:04:53;22.20;99.90
10312;DHT22;5201;48.776;9.128;2022-10-16T14:07:24;22.10;99.90
10312;DHT22;5201;48.776;9.128;2022-10-16T14:09:51;22.10;99.90
10312;DHT22;5201;48.776;9.128;2022-10-16T14:12:18;22.00;99.90
10312;DHT22;5201;48.776;9.128;2022-10-16T14:14:46;22.00;99.90
10312;DHT22;5201;48.776;9.128;2022-10-16T14:17:29;22.00;99.90
10312;DHT22;5201;48.776;9.128;2022-10-16T14:19:58;22.10;99.90
10312;DHT22;5201;48.776;9.128;2022-10-16T14:25:00;22.10;99.90
10312;DHT22;5201;48.776;9.128;2022-10-16T14:27:34;22.20;99.90
10312;DHT22;5201;48.776;9.128;2022-10-16T14:30:17;22.20;99.90
10312;DHT22;5201;48.776;9.128;2022-10-16T14:33:38;22.10;99.90
10312;DHT22;5201;48.776;9.128;2022-10-16T14:35:40;22.10;99.90
10312;DHT22;5201;48.776;9.128;2022-10-16T14:38:06;22.10;99.90
10312;DHT22;5201;48.776;9.128;2022-10-16T14:40:47;22.10;99.90
10312;DHT22;5201;48.776;9.128;2022-10-16T14:43:37;22.10;99.90
10312;DHT22;5201;48.776;9.128;2022-10-16T14:46:16;22.10;99.90
10312;DHT22;5201;48.776;9.128;2022-10-16T14:48:44;22.10;99.90
10312;DHT22;5201;48.776;9.128;2022-10-16T14:51:18;22.10;99.90
10312;DHT22;5201;48.776;9.128;2022-10-16T14:53:45;22.10;99.90
10312;DHT22;5201;48.776;9.128;2022-10-16T14:56:23;22.10;99.90
10312;DHT22;5201;48.776;9.128;2022-10-16T14:58:50;22.20;99.90
10312;DHT22;5201;48.776;9.128;2022-10-16T15:01:16;22.20;99.90
10312;DHT22;5201;48.776;9.128;2022-10-16T15:03:43;22.10;99.90
10312;DHT22;5201;48.776;9.128;2022-10-16T15:06:15;22.10;99.90
10312;DHT22;5201;48.776;9.128;2022-10-16T15:08:41;22.10;99.90
10312;DHT22;5201;48.776;9.128;2022-10-16T15:11:18;22.10;99.90
10312;DHT22;5201;48.776;9.128;2022-10-16T15:13:44;22.00;99.90
10312;DHT22;5201;48.776;9.128;2022-10-16T15:16:14;22.00;99.90
10312;DHT22;5201;48.776;9.128;2022-10-16T15:18:40;22.00;99.90
10312;DHT22;5201;48.776;9.128;2022-10-16T15:21:06;21.90;99.90
10312;DHT22;5201;48.776;9.128;2022-10-16T15:23:31;21.90;99.90
10312;DHT22;5201;48.776;9.128;2022-10-16T15:25:57;21.80;99.90
10312;DHT22;5201;48.776;9.128;2022-10-16T15:28:24;21.70;99.90
10312;DHT22;5201;48.776;9.128;2022-10-16T15:30:52;21.80;99.90
10312;DHT22;5201;48.776;9.128;2022-10-16T15:33:21;21.80;99.90
10312;DHT22;5201;48.776;9.128;2022-10-16T15:35:49;21.70;99.90
10312;DHT22;5201;48.776;9.128;2022-10-16T15:38:16;21.70;99.90
10312;DHT22;5201;48.776;9.128;2022-10-16T15:40:42;21.60;99.90
10312;DHT22;5201;48.776;9.128;2022-10-16T15:43:08;21.50;99.90
10312;DHT22;5201;48.776;9.128;2022-10-16T15:45:34;21.50;99.90
10312;DHT22;5201;48.776;9.128;2022-10-16T15:48:00;21.50;99.90
10312;DHT22;5201;48.776;9.128;2022-10-16T15:50:26;21.50;99.90
10312;DHT22;5201;48.776;9.128;2022-10-16T15:52:52;21.50;99.90
10312;DHT22;5201;48.776;9.128;2022-10-16T15:55:17;21.40;99.90
10312;DHT22;5201;48.776;9.128;2022-10-16T15:57:44;21.40;99.90
10312;DHT22;5201;48.776;9.128;2022-10-16T16:00:13;21.30;99.90
10312;DHT22;5201;48.776;9.128;2022-10-16T16:02:40;21.30;99.90
10312;DHT22;5201;48.776;9.128;2022-10-16T16:05:06;21.20;99.90
10312;DHT22;5201;48.776;9.128;2022-10-16T16:07:34;21.20;99.90
10312;DHT22;5201;48.776;9.128;2022-10-16T16:10:00;21.10;99.90
10312;DHT22;5201;48.776;9.128;2022-10-16T16:12:25;21.00;99.90
10312;DHT22;5201;48.776;9.128;2022-10-16T16:14:51;21.00;99.90
10312;DHT22;5201;48.776;9.128;2022-10-16T16:17:17;20.90;99.90
10312;DHT22;5201;48.776;9.128;2022-10-16T16:19:42;21.00;99.90
10312;DHT22;5201;48.776;9.128;2022-10-16T16:22:08;20.80;99.90
10312;DHT22;5201;48.776;9.128;2022-10-16T16:24:33;20.70;99.90
10312;DHT22;5201;48.776;9.128;2022-10-16T16:26:59;20.60;99.90
10312;DHT22;5201;48.776;9.128;2022-10-16T16:29:24;20.50;99.90
10312;DHT22;5201;48.776;9.128;2022-10-16T16:31:50;20.40;99.90
10312;DHT22;5201;48.776;9.128;2022-10-16T16:34:25;20.40;99.90
10312;DHT22;5201;48.776;9.128;2022-10-16T16:36:51;20.30;99.90
10312;DHT22;5201;48.776;9.128;2022-10-16T16:39:17;20.20;99.90
10312;DHT22;5201;48.776;9.128;2022-10-16T16:41:42;20.00;99.90
10312;DHT22;5201;48.776;9.128;2022-10-16T16:44:09;20.10;99.90
10312;DHT22;5201;48.776;9.128;2022-10-16T16:46:35;20.20;99.90
10312;DHT22;5201;48.776;9.128;2022-10-16T16:49:02;20.00;99.90
10312;DHT22;5201;48.776;9.128;2022-10-16T16:51:28;20.00;99.90
10312;DHT22;5201;48.776;9.128;2022-10-16T16:53:54;19.80;99.90
10312;DHT22;5201;48.776;9.128;2022-10-16T16:56:21;19.80;99.90
10312;DHT22;5201;48.776;9.128;2022-10-16T16:58:51;20.10;99.90
10312;DHT22;5201;48.776;9.128;2022-10-16T17:01:17;20.00;99.90
10312;DHT22;5201;48.776;9.128;2022-10-16T17:03:44;20.00;99.90
10312;DHT22;5201;48.776;9.128;2022-10-16T17:06:11;19.90;99.90
10312;DHT22;5201;48.776;9.128;2022-10-16T17:08:38;20.00;99.90
10312;DHT22;5201;48.776;9.128;2022-10-16T17:11:05;20.00;99.90
10312;DHT22;5201;48.776;9.128;2022-10-16T17:13:33;20.10;99.90
10312;DHT22;5201;48.776;9.128;2022-10-16T17:16:01;20.10;99.90
10312;DHT22;5201;48.776;9.128;2022-10-16T17:18:27;20.10;99.90
10312;DHT22;5201;48.776;9.128;2022-10-16T17:20:52;20.10;99.90
10312;DHT22;5201;48.776;9.128;2022-10-16T17:23:19;20.00;99.90
10312;DHT22;5201;48.776;9.128;2022-10-16T17:25:45;20.00;99.90
10312;DHT22;5201;48.776;9.128;2022-10-16T17:28:12;19.80;99.90
10312;DHT22;5201;48.776;9.128;2022-10-16T17:30:39;19.80;99.90
10312;DHT22;5201;48.776;9.128;2022-10-16T17:33:06;19.70;99.90
10312;DHT22;5201;48.776;9.128;2022-10-16T17:35:43;19.70;99.90
10312;DHT22;5201;48.776;9.128;2022-10-16T17:38:09;19.60;99.90
10312;DHT22;5201;48.776;9.128;2022-10-16T17:40:35;19.50;99.90
10312;DHT22;5201;48.776;9.128;2022-10-16T17:43:01;19.50;99.90
10312;DHT22;5201;48.776;9.128;2022-10-16T17:45:27;20.00;99.90
10312;DHT22;5201;48.776;9.128;2022-10-16T17:47:52;19.60;99.90